Aydin, Turkey
Current Conditions -  °F | °C
As of 10:50 PM on Thursday 23 Oct 2014 (Local Time) from LTFE Reporting Station
Broken Clouds Broken Clouds  
Wind Chill: 19°   Ceiling: 9000
Heat Index: 19°   Visibility: 6mi
Dew Point: 17°   Wind: 2mph
Humidity: 88%   Direction: NA
Pressure: 29.83"   Gusts: NA
Location:  37.86°N, 27.84°E
Report Text: LTFE 231950Z VRB02KT 9999 FEW020CB SCT030 BKN090 19/17 Q1010 RETSRA NOSIG
Loading
Personal Weather Stations






























Interactive Weather Map
Tropical Storm Tracking
New forecast layout! Learn more

10-Day Weather Forecast

Advertisements
Track Severe Weather on mobile